Time;durP1;ratioP1;P1;durP2;ratioP2;P2;SDS_P1;SDS_P2;PMS_P1;PMS_P2;Temp;Humidity;BMP_temperature;BMP_pressure;BME280_temperature;BME280_humidity;BME280_pressure;Samples;Min_cycle;Max_cycle;Signal;HPM_P1;HPM_P2
2022/05/15 00:02:09;;;;;;;12.75;4.10;;;;;;;;;;5051628;28;20033;-65
2022/05/15 00:04:35;;;;;;;11.65;4.28;;;;;;;;;;5051662;28;20477;-65
2022/05/15 00:07:02;;;;;;;20.33;4.20;;;;;;;;;;5051225;28;20037;-65
2022/05/15 00:09:28;;;;;;;8.32;4.07;;;;;;;;;;5051675;28;20025;-65
2022/05/15 00:11:54;;;;;;;10.38;3.90;;;;;;;;;;5051276;28;20048;-65
2022/05/15 00:14:20;;;;;;;9.80;4.35;;;;;;;;;;5051493;28;20024;-66
2022/05/15 00:16:46;;;;;;;16.50;4.40;;;;;;;;;;5063193;28;20059;-65
2022/05/15 00:19:13;;;;;;;18.25;5.10;;;;;;;;;;5051424;28;20021;-65
2022/05/15 00:21:39;;;;;;;14.02;4.10;;;;;;;;;;5051114;28;20122;-65
2022/05/15 00:24:06;;;;;;;10.70;4.72;;;;;;;;;;5051074;28;20029;-65
2022/05/15 00:26:33;;;;;;;18.85;5.25;;;;;;;;;;5051648;28;20400;-65
2022/05/15 00:28:59;;;;;;;23.15;5.68;;;;;;;;;;5051197;28;20076;-65
2022/05/15 00:31:25;;;;;;;20.73;4.60;;;;;;;;;;5050297;28;20033;-65
2022/05/15 00:33:51;;;;;;;13.13;4.53;;;;;;;;;;5051130;28;20039;-65
2022/05/15 00:36:18;;;;;;;11.55;4.28;;;;;;;;;;5034253;28;20025;-65
2022/05/15 00:38:44;;;;;;;10.50;4.50;;;;;;;;;;5038997;28;20020;-65
2022/05/15 00:41:11;;;;;;;12.05;4.68;;;;;;;;;;5050881;28;20135;-65
2022/05/15 00:43:39;;;;;;;8.98;3.80;;;;;;;;;;5040505;28;20018;-65
2022/05/15 00:46:06;;;;;;;13.27;4.07;;;;;;;;;;5052939;28;20059;-65
2022/05/15 00:48:33;;;;;;;8.60;3.95;;;;;;;;;;5053351;28;20021;-65
2022/05/15 00:51:01;;;;;;;13.48;4.90;;;;;;;;;;5045169;28;20047;-65
2022/05/15 00:53:28;;;;;;;17.15;4.20;;;;;;;;;;5048048;28;20144;-65
2022/05/15 00:55:54;;;;;;;20.65;5.35;;;;;;;;;;5053838;28;20119;-65
2022/05/15 00:58:27;;;;;;;15.35;6.00;;;;;;;;;;5053163;28;20093;-65
2022/05/15 01:00:53;;;;;;;8.73;4.70;;;;;;;;;;5054324;28;20182;-65
2022/05/15 01:03:20;;;;;;;12.68;4.93;;;;;;;;;;5054165;28;20025;-65
2022/05/15 01:05:48;;;;;;;11.93;3.97;;;;;;;;;;5037734;28;20025;-65
2022/05/15 01:08:15;;;;;;;14.90;4.90;;;;;;;;;;5049379;28;20033;-65
2022/05/15 01:10:43;;;;;;;13.15;4.50;;;;;;;;;;5039464;28;20496;-66
2022/05/15 01:13:10;;;;;;;17.80;4.38;;;;;;;;;;5052891;28;20062;-66
2022/05/15 01:15:37;;;;;;;13.00;4.30;;;;;;;;;;5063576;28;20029;-65
2022/05/15 01:18:04;;;;;;;12.40;4.38;;;;;;;;;;5054431;28;20028;-66
2022/05/15 01:20:31;;;;;;;14.35;4.80;;;;;;;;;;5054364;28;20029;-65
2022/05/15 01:22:58;;;;;;;10.57;3.95;;;;;;;;;;5053014;28;20022;-65
2022/05/15 01:25:29;;;;;;;14.27;4.57;;;;;;;;;;5052753;28;20025;-65
2022/05/15 01:28:09;;;;;;;12.65;4.00;;;;;;;;;;5054212;28;20063;-65
2022/05/15 01:30:38;;;;;;;13.88;4.57;;;;;;;;;;5071761;28;20100;-65
2022/05/15 01:33:06;;;;;;;14.23;4.75;;;;;;;;;;5052309;28;20512;-65
2022/05/15 01:35:32;;;;;;;13.85;4.68;;;;;;;;;;5054062;28;20029;-65
2022/05/15 01:38:01;;;;;;;11.07;4.68;;;;;;;;;;5052334;28;20049;-65
2022/05/15 01:40:27;;;;;;;9.82;4.57;;;;;;;;;;5052688;28;20029;-65
2022/05/15 01:42:53;;;;;;;15.45;5.50;;;;;;;;;;5054051;28;20032;-65
2022/05/15 01:45:19;;;;;;;13.88;4.80;;;;;;;;;;5052440;28;20055;-65
2022/05/15 01:47:46;;;;;;;10.02;4.18;;;;;;;;;;5052223;28;20029;-65
2022/05/15 01:50:13;;;;;;;10.68;4.38;;;;;;;;;;5052029;28;20389;-65
2022/05/15 01:52:40;;;;;;;13.15;4.85;;;;;;;;;;5052115;28;20044;-65
2022/05/15 01:55:07;;;;;;;13.32;4.63;;;;;;;;;;5051780;28;20033;-65
2022/05/15 01:57:33;;;;;;;11.93;4.60;;;;;;;;;;5052062;28;20049;-66
2022/05/15 02:00:00;;;;;;;17.08;5.30;;;;;;;;;;5052093;28;20076;-66
2022/05/15 02:02:30;;;;;;;15.60;5.75;;;;;;;;;;5037200;28;20024;-65
2022/05/15 02:04:56;;;;;;;15.43;6.55;;;;;;;;;;5053450;28;20029;-65
2022/05/15 02:07:22;;;;;;;19.00;5.88;;;;;;;;;;5051998;28;20031;-65
2022/05/15 02:09:49;;;;;;;15.02;5.53;;;;;;;;;;5052263;28;20400;-65
2022/05/15 02:12:15;;;;;;;16.23;5.65;;;;;;;;;;5052815;28;20435;-65
2022/05/15 02:14:41;;;;;;;15.80;5.65;;;;;;;;;;5055029;28;20507;-65
2022/05/15 02:17:07;;;;;;;12.65;4.63;;;;;;;;;;5063704;28;20464;-65
2022/05/15 02:19:34;;;;;;;16.70;5.30;;;;;;;;;;5053020;28;20542;-65
2022/05/15 02:22:00;;;;;;;11.15;5.45;;;;;;;;;;5051717;28;20079;-65
2022/05/15 02:24:27;;;;;;;19.13;6.35;;;;;;;;;;5053135;28;20021;-65
2022/05/15 02:26:53;;;;;;;13.65;5.25;;;;;;;;;;5051877;28;20100;-65
2022/05/15 02:29:20;;;;;;;17.08;5.97;;;;;;;;;;5051573;28;20082;-65
2022/05/15 02:31:46;;;;;;;14.07;5.55;;;;;;;;;;5051450;28;20063;-65
2022/05/15 02:34:12;;;;;;;13.35;5.35;;;;;;;;;;5051187;28;20128;-65
2022/05/15 02:36:38;;;;;;;12.88;5.63;;;;;;;;;;5034320;28;20021;-65
2022/05/15 02:39:05;;;;;;;19.42;5.80;;;;;;;;;;5040814;28;20078;-65
2022/05/15 02:41:33;;;;;;;12.88;5.95;;;;;;;;;;5051410;28;20040;-66
2022/05/15 02:44:00;;;;;;;17.15;5.85;;;;;;;;;;5051357;28;20037;-65
2022/05/15 02:46:26;;;;;;;23.05;6.07;;;;;;;;;;5052262;28;20032;-66
2022/05/15 02:51:39;;;;;;;18.75;6.20;;;;;;;;;;5051291;28;20033;-65
2022/05/15 02:54:05;;;;;;;25.48;6.88;;;;;;;;;;5051211;28;20082;-65
2022/05/15 02:56:32;;;;;;;16.25;6.22;;;;;;;;;;5050749;28;20103;-65
2022/05/15 02:58:59;;;;;;;12.95;6.22;;;;;;;;;;5051221;28;20036;-65
2022/05/15 03:01:26;;;;;;;23.45;6.55;;;;;;;;;;5050588;28;20055;-65
2022/05/15 03:03:52;;;;;;;18.52;7.10;;;;;;;;;;5051102;28;20021;-65
2022/05/15 03:06:19;;;;;;;15.93;6.15;;;;;;;;;;5050642;28;20033;-65
2022/05/15 03:08:47;;;;;;;22.33;7.97;;;;;;;;;;5050839;28;20075;-65
2022/05/15 03:11:14;;;;;;;19.92;6.32;;;;;;;;;;5051143;28;20029;-65
2022/05/15 03:13:41;;;;;;;19.35;6.95;;;;;;;;;;5050898;28;20032;-65
2022/05/15 03:16:08;;;;;;;18.70;6.35;;;;;;;;;;5065335;28;20033;-65
2022/05/15 03:18:42;;;;;;;24.08;6.63;;;;;;;;;;5050689;28;20467;-65
2022/05/15 03:21:10;;;;;;;19.98;6.72;;;;;;;;;;5050908;28;20032;-65
2022/05/15 03:23:36;;;;;;;18.65;6.40;;;;;;;;;;5050706;28;20025;-66
2022/05/15 03:26:03;;;;;;;16.50;5.80;;;;;;;;;;5050907;28;20025;-65
2022/05/15 03:28:29;;;;;;;14.93;5.80;;;;;;;;;;5050146;28;20060;-65
2022/05/15 03:30:55;;;;;;;20.00;6.53;;;;;;;;;;5051903;28;20039;-65
2022/05/15 03:33:21;;;;;;;21.40;6.57;;;;;;;;;;5051929;28;20017;-65
2022/05/15 03:35:47;;;;;;;19.88;6.45;;;;;;;;;;5052170;28;20053;-65
2022/05/15 03:38:14;;;;;;;19.70;6.53;;;;;;;;;;5050546;28;20476;-65
2022/05/15 03:40:40;;;;;;;12.02;6.18;;;;;;;;;;5050172;28;20428;-65
2022/05/15 03:43:06;;;;;;;14.05;7.20;;;;;;;;;;5050321;28;20013;-65
2022/05/15 03:45:33;;;;;;;17.95;6.55;;;;;;;;;;5051566;28;20021;-65
2022/05/15 03:47:59;;;;;;;15.95;6.18;;;;;;;;;;5050428;28;20047;-66
2022/05/15 03:50:26;;;;;;;30.98;7.22;;;;;;;;;;5051473;28;20029;-65
2022/05/15 03:52:52;;;;;;;15.60;6.68;;;;;;;;;;5051706;28;20025;-65
2022/05/15 03:55:19;;;;;;;16.27;6.70;;;;;;;;;;5050221;28;20128;-65
2022/05/15 03:57:45;;;;;;;18.60;7.00;;;;;;;;;;5050181;28;20044;-65
2022/05/15 04:00:14;;;;;;;21.35;6.88;;;;;;;;;;5050591;28;20037;-65
2022/05/15 04:02:42;;;;;;;20.85;6.18;;;;;;;;;;5049964;28;20100;-65
2022/05/15 04:05:09;;;;;;;17.88;6.72;;;;;;;;;;5051891;28;20052;-65
2022/05/15 04:07:46;;;;;;;23.15;6.75;;;;;;;;;;5049838;28;20036;-65
2022/05/15 04:10:13;;;;;;;17.92;6.95;;;;;;;;;;5051651;28;20029;-66
2022/05/15 04:12:39;;;;;;;27.38;8.25;;;;;;;;;;5049568;28;20021;-65
2022/05/15 04:15:05;;;;;;;19.33;6.57;;;;;;;;;;5050369;28;20033;-65
2022/05/15 04:17:31;;;;;;;17.92;6.97;;;;;;;;;;5052107;28;20029;-66
2022/05/15 04:20:01;;;;;;;13.52;7.45;;;;;;;;;;5054277;28;20032;-65
2022/05/15 04:22:27;;;;;;;18.92;6.70;;;;;;;;;;5053791;28;20408;-66
2022/05/15 04:24:53;;;;;;;14.82;6.40;;;;;;;;;;5054116;28;20020;-65
2022/05/15 04:27:20;;;;;;;19.05;6.65;;;;;;;;;;5053725;28;20115;-65
2022/05/15 04:29:46;;;;;;;19.13;6.15;;;;;;;;;;5049045;28;20078;-65
2022/05/15 04:32:12;;;;;;;18.85;7.38;;;;;;;;;;5055370;28;20388;-66
2022/05/15 04:34:38;;;;;;;14.13;6.70;;;;;;;;;;5052823;28;20021;-66
2022/05/15 04:37:04;;;;;;;20.80;7.07;;;;;;;;;;5054916;28;20017;-66
2022/05/15 04:39:33;;;;;;;15.95;6.05;;;;;;;;;;5054321;28;20071;-66
2022/05/15 04:42:00;;;;;;;16.00;7.00;;;;;;;;;;5054397;28;20551;-66
2022/05/15 04:44:27;;;;;;;15.00;7.03;;;;;;;;;;5054223;28;20015;-66
2022/05/15 04:46:53;;;;;;;23.73;8.75;;;;;;;;;;5054381;28;20025;-65
2022/05/15 04:49:19;;;;;;;16.48;7.25;;;;;;;;;;5054676;28;20063;-66
2022/05/15 04:51:45;;;;;;;17.77;7.40;;;;;;;;;;5061636;28;20035;-65
2022/05/15 04:54:11;;;;;;;15.38;6.97;;;;;;;;;;5054007;28;20028;-66
2022/05/15 04:56:37;;;;;;;18.92;7.30;;;;;;;;;;5052794;28;20048;-65
2022/05/15 04:59:04;;;;;;;27.30;7.78;;;;;;;;;;5059060;28;20120;-65
2022/05/15 05:01:30;;;;;;;18.95;8.20;;;;;;;;;;5048287;28;20033;-65
2022/05/15 05:03:57;;;;;;;16.33;6.80;;;;;;;;;;5042196;28;20030;-65
2022/05/15 05:06:23;;;;;;;15.65;7.20;;;;;;;;;;5050374;28;20057;-66
2022/05/15 05:08:50;;;;;;;16.45;7.55;;;;;;;;;;5049883;28;20143;-66
2022/05/15 05:11:16;;;;;;;21.25;7.47;;;;;;;;;;5046580;28;20032;-66
2022/05/15 05:13:43;;;;;;;17.35;7.30;;;;;;;;;;5053936;28;20032;-65
2022/05/15 05:16:09;;;;;;;20.02;7.00;;;;;;;;;;5051045;28;20033;-65
2022/05/15 05:18:35;;;;;;;25.35;7.95;;;;;;;;;;5045615;28;20401;-66
2022/05/15 05:21:01;;;;;;;19.38;7.32;;;;;;;;;;5039695;28;20041;-66
2022/05/15 05:23:27;;;;;;;23.98;7.20;;;;;;;;;;5053900;28;20408;-66
2022/05/15 05:25:53;;;;;;;22.85;8.60;;;;;;;;;;5052612;28;20028;-66
2022/05/15 05:28:20;;;;;;;21.33;7.75;;;;;;;;;;5047902;28;20060;-66
2022/05/15 05:30:46;;;;;;;21.60;7.68;;;;;;;;;;5051937;28;20041;-66
2022/05/15 05:33:13;;;;;;;19.08;8.15;;;;;;;;;;5049293;28;20029;-65
2022/05/15 05:35:39;;;;;;;16.17;7.70;;;;;;;;;;5051666;28;20037;-66
2022/05/15 05:38:05;;;;;;;22.60;8.52;;;;;;;;;;5050123;28;20021;-66
2022/05/15 05:40:32;;;;;;;14.15;7.05;;;;;;;;;;5053431;28;20090;-66
2022/05/15 05:42:58;;;;;;;18.33;8.15;;;;;;;;;;5042991;28;20017;-66
2022/05/15 05:45:24;;;;;;;27.70;10.32;;;;;;;;;;5044585;28;20035;-66
2022/05/15 05:47:51;;;;;;;17.30;7.70;;;;;;;;;;5053451;28;20021;-66
2022/05/15 05:50:18;;;;;;;18.65;8.52;;;;;;;;;;5051304;28;20064;-66
2022/05/15 05:52:44;;;;;;;16.83;8.10;;;;;;;;;;5050624;28;20029;-66
2022/05/15 05:55:12;;;;;;;15.57;8.85;;;;;;;;;;5045796;28;20025;-66
2022/05/15 05:57:39;;;;;;;20.30;7.70;;;;;;;;;;5050014;28;20044;-65
2022/05/15 06:00:06;;;;;;;18.33;7.10;;;;;;;;;;5050688;28;20033;-66
2022/05/15 06:02:38;;;;;;;15.55;7.60;;;;;;;;;;5049970;28;20029;-66
2022/05/15 06:05:05;;;;;;;22.23;7.60;;;;;;;;;;5052579;28;20021;-66
2022/05/15 06:07:33;;;;;;;14.82;7.45;;;;;;;;;;5051718;28;20112;-66
2022/05/15 06:10:00;;;;;;;17.58;7.28;;;;;;;;;;5052650;28;20033;-66
2022/05/15 06:12:26;;;;;;;23.58;7.20;;;;;;;;;;5045767;28;20013;-66
2022/05/15 06:14:53;;;;;;;14.82;7.40;;;;;;;;;;5044944;28;20021;-66
2022/05/15 06:17:23;;;;;;;15.80;6.97;;;;;;;;;;5050178;28;20389;-66
2022/05/15 06:19:50;;;;;;;15.45;7.40;;;;;;;;;;5050473;28;20053;-66
2022/05/15 06:22:16;;;;;;;17.02;7.15;;;;;;;;;;5052248;28;20040;-66
2022/05/15 06:24:42;;;;;;;19.92;6.43;;;;;;;;;;5052123;28;20151;-67
2022/05/15 06:27:10;;;;;;;20.38;7.47;;;;;;;;;;5051707;28;20043;-66
2022/05/15 06:29:40;;;;;;;16.25;6.97;;;;;;;;;;5050820;28;20116;-66
2022/05/15 06:32:07;;;;;;;15.88;6.65;;;;;;;;;;5050897;28;20029;-66
2022/05/15 06:34:33;;;;;;;15.55;7.05;;;;;;;;;;5043032;28;20475;-65
2022/05/15 06:36:59;;;;;;;10.82;6.93;;;;;;;;;;5042376;28;20561;-66
2022/05/15 06:39:25;;;;;;;15.55;7.35;;;;;;;;;;5037445;28;20020;-64
2022/05/15 06:41:51;;;;;;;16.98;7.07;;;;;;;;;;5038916;28;20029;-66
2022/05/15 06:44:28;;;;;;;17.95;8.32;;;;;;;;;;5041136;28;20419;-66
2022/05/15 06:46:54;;;;;;;11.00;6.30;;;;;;;;;;5035899;28;20033;-67
2022/05/15 06:49:20;;;;;;;16.63;6.38;;;;;;;;;;5042669;28;20013;-67
2022/05/15 06:51:46;;;;;;;18.05;6.60;;;;;;;;;;5036764;28;20099;-67
2022/05/15 06:54:12;;;;;;;11.27;6.03;;;;;;;;;;5037639;28;20064;-67
2022/05/15 06:59:23;;;;;;;11.35;5.95;;;;;;;;;;5041748;28;20025;-67
2022/05/15 07:01:49;;;;;;;14.40;6.78;;;;;;;;;;5045183;28;20068;-67
2022/05/15 07:04:15;;;;;;;10.25;6.05;;;;;;;;;;5047542;28;20044;-67
2022/05/15 07:06:41;;;;;;;11.73;6.22;;;;;;;;;;5035740;28;20108;-67
2022/05/15 07:09:07;;;;;;;14.27;6.68;;;;;;;;;;5044130;28;20500;-67
2022/05/15 07:11:34;;;;;;;13.60;6.03;;;;;;;;;;5040525;28;20048;-67
2022/05/15 07:14:00;;;;;;;9.80;6.03;;;;;;;;;;5039889;28;20377;-66
2022/05/15 07:16:26;;;;;;;13.98;6.63;;;;;;;;;;5069749;28;20086;-66
2022/05/15 07:18:52;;;;;;;12.32;6.15;;;;;;;;;;5045435;28;20132;-66
2022/05/15 07:21:18;;;;;;;10.00;6.07;;;;;;;;;;5040644;28;20025;-67
2022/05/15 07:23:44;;;;;;;14.25;6.85;;;;;;;;;;5041033;28;20075;-67
2022/05/15 07:26:11;;;;;;;15.10;6.30;;;;;;;;;;5047521;28;20025;-66
2022/05/15 07:28:37;;;;;;;10.13;6.15;;;;;;;;;;5049927;28;20025;-67
2022/05/15 07:31:03;;;;;;;15.88;6.80;;;;;;;;;;5054718;28;20032;-66
2022/05/15 07:33:29;;;;;;;13.23;6.15;;;;;;;;;;5050713;28;20033;-67
2022/05/15 07:35:55;;;;;;;13.13;6.60;;;;;;;;;;5052018;28;20047;-67
2022/05/15 07:38:22;;;;;;;16.70;6.75;;;;;;;;;;5049601;28;20119;-67
2022/05/15 07:40:48;;;;;;;16.67;6.53;;;;;;;;;;5045441;28;20029;-66
2022/05/15 07:43:14;;;;;;;13.75;6.22;;;;;;;;;;5051418;28;20021;-67
2022/05/15 07:45:40;;;;;;;14.23;6.70;;;;;;;;;;5054839;28;20052;-67
2022/05/15 07:48:07;;;;;;;17.27;6.38;;;;;;;;;;5050754;28;20029;-67
2022/05/15 07:50:34;;;;;;;12.05;6.10;;;;;;;;;;5047838;28;20397;-67
2022/05/15 07:53:00;;;;;;;11.45;6.88;;;;;;;;;;5056987;28;20036;-67
2022/05/15 07:55:27;;;;;;;17.42;6.28;;;;;;;;;;5056018;28;20024;-67
2022/05/15 07:57:53;;;;;;;12.82;5.85;;;;;;;;;;5054225;28;20037;-67
2022/05/15 08:00:20;;;;;;;18.83;6.43;;;;;;;;;;5047649;28;20575;-67
2022/05/15 08:02:46;;;;;;;13.45;6.35;;;;;;;;;;5049206;28;20386;-67
2022/05/15 08:08:11;;;;;;;16.50;6.13;;;;;;;;;;5053314;28;20079;-67
2022/05/15 08:10:43;;;;;;;16.52;6.47;;;;;;;;;;5051700;28;20033;-67
2022/05/15 08:13:12;;;;;;;15.43;7.07;;;;;;;;;;5052498;28;20074;-67
2022/05/15 08:15:38;;;;;;;12.85;6.07;;;;;;;;;;5050001;28;20389;-67
2022/05/15 08:23:37;;;;;;;10.25;5.82;;;;;;;;;;5047500;28;20063;-67
2022/05/15 08:26:04;;;;;;;10.23;5.75;;;;;;;;;;5054173;28;20033;-67
2022/05/15 08:28:30;;;;;;;13.77;5.05;;;;;;;;;;5052450;28;20095;-67
2022/05/15 08:30:56;;;;;;;11.57;5.10;;;;;;;;;;5057410;28;20032;-67
2022/05/15 08:33:22;;;;;;;9.45;5.50;;;;;;;;;;5049143;28;20058;-67
2022/05/15 08:35:48;;;;;;;12.45;5.30;;;;;;;;;;5051502;28;20095;-67
2022/05/15 08:38:15;;;;;;;12.90;5.82;;;;;;;;;;5050185;28;20033;-67
2022/05/15 08:40:54;;;;;;;8.43;4.63;;;;;;;;;;5048506;28;20479;-67
2022/05/15 08:43:22;;;;;;;9.75;4.65;;;;;;;;;;5048867;28;20021;-67
2022/05/15 08:46:10;;;;;;;6.95;4.00;;;;;;;;;;5051704;28;20025;-67
2022/05/15 08:48:38;;;;;;;8.10;3.78;;;;;;;;;;5051594;28;20501;-67
2022/05/15 08:51:05;;;;;;;9.23;4.00;;;;;;;;;;5051167;28;20497;-66
2022/05/15 08:53:35;;;;;;;9.77;4.07;;;;;;;;;;5050590;28;20041;-67
2022/05/15 08:56:06;;;;;;;8.43;4.65;;;;;;;;;;5049722;28;20094;-66
2022/05/15 08:58:36;;;;;;;9.25;3.80;;;;;;;;;;5051346;28;20036;-67
2022/05/15 09:01:05;;;;;;;8.65;3.78;;;;;;;;;;5049172;28;20028;-67
2022/05/15 09:03:35;;;;;;;12.02;3.88;;;;;;;;;;5050217;28;20029;-67
2022/05/15 09:06:01;;;;;;;7.20;3.47;;;;;;;;;;5053783;28;20481;-67
2022/05/15 09:08:30;;;;;;;9.00;3.58;;;;;;;;;;5045575;28;20385;-67
2022/05/15 09:11:02;;;;;;;9.25;3.83;;;;;;;;;;5051004;28;20048;-68
2022/05/15 09:13:34;;;;;;;8.93;3.30;;;;;;;;;;5048581;28;20033;-66
2022/05/15 09:16:01;;;;;;;7.15;3.08;;;;;;;;;;5054126;28;20040;-66
2022/05/15 09:18:28;;;;;;;8.73;3.00;;;;;;;;;;5048245;28;20037;-66
2022/05/15 09:20:58;;;;;;;8.20;3.38;;;;;;;;;;5056495;28;20029;-66
2022/05/15 09:23:32;;;;;;;8.30;3.17;;;;;;;;;;5055885;28;20020;-66
2022/05/15 09:26:11;;;;;;;7.50;3.13;;;;;;;;;;5051589;28;20028;-66
2022/05/15 09:28:45;;;;;;;9.20;2.80;;;;;;;;;;5052992;28;20520;-66
2022/05/15 09:31:40;;;;;;;6.68;2.85;;;;;;;;;;5052646;28;20068;-67
2022/05/15 09:34:08;;;;;;;6.18;2.85;;;;;;;;;;5046255;28;20500;-67
2022/05/15 09:36:34;;;;;;;10.68;3.20;;;;;;;;;;5047739;28;20024;-66
2022/05/15 09:39:13;;;;;;;4.82;3.20;;;;;;;;;;5049665;28;20048;-66
2022/05/15 09:44:29;;;;;;;7.13;3.03;;;;;;;;;;5071696;28;20025;-66
2022/05/15 09:47:18;;;;;;;11.18;3.25;;;;;;;;;;5051730;28;20029;-67
2022/05/15 09:49:45;;;;;;;7.05;3.75;;;;;;;;;;5047120;28;20489;-66
2022/05/15 09:52:26;;;;;;;5.90;2.45;;;;;;;;;;5041036;28;20060;-67
2022/05/15 09:54:52;;;;;;;5.45;3.25;;;;;;;;;;5048626;28;20420;-66
2022/05/15 09:57:21;;;;;;;9.75;3.35;;;;;;;;;;5051052;28;20053;-66
2022/05/15 10:00:11;;;;;;;8.45;3.00;;;;;;;;;;5048191;28;20390;-66
2022/05/15 10:02:51;;;;;;;12.65;2.60;;;;;;;;;;5044736;28;20045;-66
2022/05/15 10:05:20;;;;;;;5.43;2.75;;;;;;;;;;5054057;28;20021;-67
2022/05/15 10:08:09;;;;;;;6.00;2.70;;;;;;;;;;5049643;28;20036;-67
2022/05/15 10:10:47;;;;;;;5.72;2.45;;;;;;;;;;5051909;28;20090;-67
2022/05/15 10:13:31;;;;;;;8.55;3.00;;;;;;;;;;5051829;28;20045;-66
2022/05/15 10:16:04;;;;;;;4.25;2.80;;;;;;;;;;5051233;28;20108;-66
2022/05/15 10:18:32;;;;;;;5.95;3.08;;;;;;;;;;5043862;28;20525;-66
2022/05/15 10:21:00;;;;;;;6.75;2.63;;;;;;;;;;5048702;28;20397;-66
2022/05/15 10:23:45;;;;;;;7.75;2.90;;;;;;;;;;5042926;28;20021;-66
2022/05/15 10:26:27;;;;;;;4.47;2.78;;;;;;;;;;5043619;28;20025;-66
2022/05/15 10:28:53;;;;;;;5.63;2.58;;;;;;;;;;5052083;28;20230;-66
2022/05/15 10:31:23;;;;;;;6.43;2.75;;;;;;;;;;5050313;28;20035;-66
2022/05/15 10:33:50;;;;;;;7.72;2.85;;;;;;;;;;5048893;28;20029;-66
2022/05/15 10:36:26;;;;;;;7.18;2.80;;;;;;;;;;5044244;28;20055;-66
2022/05/15 10:39:02;;;;;;;11.02;2.95;;;;;;;;;;5050180;28;20040;-66
2022/05/15 10:41:47;;;;;;;7.32;3.10;;;;;;;;;;5049115;28;20102;-67
2022/05/15 10:44:13;;;;;;;5.28;2.85;;;;;;;;;;5051220;28;20116;-67
2022/05/15 10:46:42;;;;;;;7.63;2.92;;;;;;;;;;5050983;28;20043;-67
2022/05/15 10:49:27;;;;;;;8.23;3.08;;;;;;;;;;5052794;28;20024;-66
2022/05/15 10:51:59;;;;;;;7.15;2.95;;;;;;;;;;5041293;28;20026;-67
2022/05/15 10:57:35;;;;;;;4.95;2.30;;;;;;;;;;5051401;28;20119;-66
2022/05/15 11:00:01;;;;;;;10.23;2.80;;;;;;;;;;5046574;28;20082;-66
2022/05/15 11:02:41;;;;;;;9.77;2.42;;;;;;;;;;5037538;28;20485;-67
2022/05/15 11:05:10;;;;;;;4.70;2.40;;;;;;;;;;5043644;28;20397;-66
2022/05/15 11:07:45;;;;;;;3.33;1.95;;;;;;;;;;5051240;28;20028;-66
2022/05/15 11:10:23;;;;;;;5.57;2.33;;;;;;;;;;5051914;28;20032;-66
2022/05/15 11:12:56;;;;;;;7.72;2.33;;;;;;;;;;5048256;28;20029;-66
2022/05/15 11:15:30;;;;;;;5.38;2.55;;;;;;;;;;5041548;28;20433;-66
2022/05/15 11:17:56;;;;;;;6.65;2.53;;;;;;;;;;5045138;28;20033;-66
2022/05/15 11:20:53;;;;;;;5.90;2.85;;;;;;;;;;5048609;28;20126;-66
2022/05/15 11:23:19;;;;;;;5.68;2.67;;;;;;;;;;5030225;28;20646;-67
2022/05/15 11:25:56;;;;;;;6.22;3.10;;;;;;;;;;5051023;28;20384;-67
2022/05/15 11:28:31;;;;;;;5.22;2.80;;;;;;;;;;5041071;28;20029;-67
2022/05/15 11:31:02;;;;;;;2.70;2.13;;;;;;;;;;5050071;28;20126;-67
2022/05/15 11:33:44;;;;;;;4.55;3.17;;;;;;;;;;5034047;28;20155;-67
2022/05/15 11:36:22;;;;;;;4.97;2.45;;;;;;;;;;5046930;28;20028;-67
2022/05/15 11:38:51;;;;;;;7.22;2.63;;;;;;;;;;5036485;28;20035;-67
2022/05/15 11:41:31;;;;;;;5.60;2.70;;;;;;;;;;5053105;28;20021;-67
2022/05/15 11:43:58;;;;;;;5.82;2.55;;;;;;;;;;5048348;28;20024;-67
2022/05/15 11:46:43;;;;;;;7.13;2.47;;;;;;;;;;5051496;28;20051;-67
2022/05/15 11:49:29;;;;;;;7.55;2.90;;;;;;;;;;5048228;28;20029;-67
2022/05/15 11:52:16;;;;;;;7.88;3.20;;;;;;;;;;5054594;28;20485;-67
2022/05/15 11:54:45;;;;;;;9.73;2.97;;;;;;;;;;5048956;28;20071;-67
2022/05/15 11:57:13;;;;;;;7.13;2.95;;;;;;;;;;5043289;28;20041;-67
2022/05/15 11:59:47;;;;;;;6.78;2.53;;;;;;;;;;5048159;28;20029;-67
2022/05/15 12:02:33;;;;;;;8.52;3.30;;;;;;;;;;5051244;28;20774;-67
2022/05/15 12:05:00;;;;;;;3.38;2.45;;;;;;;;;;5046142;28;20025;-67
2022/05/15 12:07:32;;;;;;;8.00;2.92;;;;;;;;;;5037930;28;20022;-67
2022/05/15 12:09:58;;;;;;;5.35;2.67;;;;;;;;;;5042140;28;20354;-66
2022/05/15 12:12:27;;;;;;;4.50;2.35;;;;;;;;;;5040076;28;20143;-66
2022/05/15 12:15:13;;;;;;;6.25;2.50;;;;;;;;;;5034605;28;20405;-66
2022/05/15 12:17:41;;;;;;;7.82;2.60;;;;;;;;;;5038920;28;20029;-66
2022/05/15 12:20:16;;;;;;;6.18;2.90;;;;;;;;;;5033178;28;20529;-66
2022/05/15 12:22:53;;;;;;;4.40;2.72;;;;;;;;;;5034541;28;20465;-66
2022/05/15 12:25:23;;;;;;;7.22;2.80;;;;;;;;;;5037922;28;20029;-67
2022/05/15 12:28:50;;;;;;;8.65;3.17;;;;;;;;;;5037526;28;20606;-74
2022/05/15 12:30:42;;;;;;;9.68;2.92;;;;;;;;;;5048585;28;20036;-67
2022/05/15 12:33:09;;;;;;;6.32;2.75;;;;;;;;;;5053878;28;20029;-67
2022/05/15 12:35:40;;;;;;;7.43;4.82;;;;;;;;;;5050250;28;20037;-67
2022/05/15 12:38:08;;;;;;;6.10;3.60;;;;;;;;;;5045611;28;20036;-69
2022/05/15 12:40:36;;;;;;;7.65;3.88;;;;;;;;;;5053518;28;20068;-65
2022/05/15 12:43:02;;;;;;;9.90;3.90;;;;;;;;;;5054200;28;20029;-65
2022/05/15 12:45:32;;;;;;;12.25;3.95;;;;;;;;;;5051371;28;20497;-65
2022/05/15 12:48:09;;;;;;;9.90;3.83;;;;;;;;;;5044969;28;20033;-65
2022/05/15 12:50:56;;;;;;;11.15;3.60;;;;;;;;;;5053952;28;20039;-65
2022/05/15 12:53:27;;;;;;;6.03;3.58;;;;;;;;;;5039841;28;20068;-66
2022/05/15 12:55:53;;;;;;;7.80;3.65;;;;;;;;;;5046956;28;20132;-66
2022/05/15 12:58:32;;;;;;;9.85;4.22;;;;;;;;;;5052076;28;20369;-66
2022/05/15 13:00:59;;;;;;;7.03;4.18;;;;;;;;;;5052308;28;20397;-66
2022/05/15 13:03:25;;;;;;;6.28;3.97;;;;;;;;;;5052419;28;20053;-66
2022/05/15 13:05:53;;;;;;;6.88;3.40;;;;;;;;;;5052118;28;20025;-66
2022/05/15 13:08:20;;;;;;;4.68;3.33;;;;;;;;;;5049557;28;20029;-65
2022/05/15 13:11:03;;;;;;;9.52;3.83;;;;;;;;;;5055551;28;20500;-65
2022/05/15 13:13:38;;;;;;;6.30;3.63;;;;;;;;;;5051518;28;20029;-66
2022/05/15 13:16:05;;;;;;;5.38;3.20;;;;;;;;;;5052957;28;20064;-66
2022/05/15 13:18:33;;;;;;;6.43;3.03;;;;;;;;;;5053036;28;20070;-65
2022/05/15 13:21:04;;;;;;;10.15;3.50;;;;;;;;;;5058498;28;20028;-65
2022/05/15 13:23:36;;;;;;;11.88;4.00;;;;;;;;;;5052482;28;21627;-65
2022/05/15 13:26:02;;;;;;;6.93;3.57;;;;;;;;;;5061816;28;20024;-65
2022/05/15 13:28:31;;;;;;;9.85;3.67;;;;;;;;;;5063662;28;20023;-65
2022/05/15 13:30:57;;;;;;;9.43;3.75;;;;;;;;;;5053156;28;20041;-65
2022/05/15 13:33:26;;;;;;;11.30;3.83;;;;;;;;;;5053216;28;20111;-65
2022/05/15 13:35:56;;;;;;;6.25;3.80;;;;;;;;;;5052593;28;20025;-65
2022/05/15 13:38:27;;;;;;;8.15;3.50;;;;;;;;;;5054196;28;20033;-65
2022/05/15 13:43:52;;;;;;;9.80;3.65;;;;;;;;;;5050694;28;20104;-65
2022/05/15 13:46:32;;;;;;;8.13;3.63;;;;;;;;;;5053968;28;20075;-65
2022/05/15 13:49:03;;;;;;;7.68;3.70;;;;;;;;;;5048979;28;20130;-65
2022/05/15 13:51:31;;;;;;;9.20;4.15;;;;;;;;;;5051392;28;20028;-65
2022/05/15 13:54:06;;;;;;;6.75;3.30;;;;;;;;;;5051729;28;20470;-65
2022/05/15 13:56:32;;;;;;;11.75;3.90;;;;;;;;;;5052408;28;20156;-65
2022/05/15 13:58:58;;;;;;;6.13;3.65;;;;;;;;;;5051583;28;20025;-65
2022/05/15 14:01:28;;;;;;;9.98;3.75;;;;;;;;;;5052496;28;20075;-65
2022/05/15 14:03:56;;;;;;;9.10;3.70;;;;;;;;;;5054251;28;20028;-65
2022/05/15 14:06:32;;;;;;;9.45;3.55;;;;;;;;;;5051771;28;20013;-65
2022/05/15 14:08:58;;;;;;;12.98;4.07;;;;;;;;;;5040701;28;20048;-65
2022/05/15 14:11:26;;;;;;;11.02;3.90;;;;;;;;;;5038472;28;20033;-65
2022/05/15 14:13:53;;;;;;;11.32;4.30;;;;;;;;;;5040169;28;20033;-65
2022/05/15 14:16:22;;;;;;;10.00;4.00;;;;;;;;;;5040603;28;20021;-65
2022/05/15 14:18:49;;;;;;;7.05;3.80;;;;;;;;;;5044764;28;20017;-65
2022/05/15 14:21:16;;;;;;;5.15;3.10;;;;;;;;;;5045385;28;20477;-65
2022/05/15 14:23:43;;;;;;;8.07;4.10;;;;;;;;;;5070478;28;20397;-65
2022/05/15 14:26:11;;;;;;;6.63;3.92;;;;;;;;;;5052080;28;20021;-66
2022/05/15 14:28:40;;;;;;;10.52;3.92;;;;;;;;;;5044468;28;20021;-66
2022/05/15 14:31:10;;;;;;;5.80;3.40;;;;;;;;;;5051961;28;20511;-65
2022/05/15 14:33:39;;;;;;;7.43;4.10;;;;;;;;;;5043271;28;20029;-65
2022/05/15 14:36:22;;;;;;;9.60;3.47;;;;;;;;;;5039402;28;20112;-65
2022/05/15 14:38:49;;;;;;;6.43;3.55;;;;;;;;;;5034645;28;20029;-65
2022/05/15 14:41:15;;;;;;;12.13;3.90;;;;;;;;;;5045376;28;20492;-65
2022/05/15 14:43:41;;;;;;;8.20;3.83;;;;;;;;;;5055741;28;20078;-66
2022/05/15 14:46:10;;;;;;;7.47;3.85;;;;;;;;;;5051641;28;20021;-66
2022/05/15 14:48:38;;;;;;;9.20;3.80;;;;;;;;;;5050885;28;20032;-66
2022/05/15 14:51:07;;;;;;;8.93;3.90;;;;;;;;;;5045024;28;20029;-65
2022/05/15 14:53:34;;;;;;;6.28;4.10;;;;;;;;;;5052347;28;20068;-65
2022/05/15 14:56:10;;;;;;;5.63;4.20;;;;;;;;;;5047130;28;20123;-65
2022/05/15 14:58:47;;;;;;;7.15;4.32;;;;;;;;;;5034631;28;20090;-66
2022/05/15 15:01:15;;;;;;;5.53;3.75;;;;;;;;;;5047100;28;20041;-65
2022/05/15 15:03:41;;;;;;;8.10;3.78;;;;;;;;;;5052074;28;20083;-66
2022/05/15 15:06:07;;;;;;;10.63;4.00;;;;;;;;;;5044003;28;20032;-65
2022/05/15 15:08:33;;;;;;;6.85;3.63;;;;;;;;;;5038876;28;20502;-65
2022/05/15 15:11:18;;;;;;;8.23;3.72;;;;;;;;;;5045847;28;20031;-65